sensor_id;sensor_type;location;lat;lon;timestamp;P1;durP1;ratioP1;P2;durP2;ratioP2
36593;SDS011;22603;47.900;8.146;2023-02-28T00:00:54;5.70;;;2.70;;
36593;SDS011;22603;47.900;8.146;2023-02-28T00:03:41;5.77;;;2.13;;
36593;SDS011;22603;47.900;8.146;2023-02-28T00:06:28;5.90;;;2.23;;
36593;SDS011;22603;47.900;8.146;2023-02-28T00:09:15;4.83;;;2.30;;
36593;SDS011;22603;47.900;8.146;2023-02-28T00:12:05;5.33;;;2.67;;
36593;SDS011;22603;47.900;8.146;2023-02-28T00:14:55;4.63;;;2.30;;
36593;SDS011;22603;47.900;8.146;2023-02-28T00:17:42;8.47;;;3.07;;
36593;SDS011;22603;47.900;8.146;2023-02-28T00:20:29;6.47;;;2.50;;
36593;SDS011;22603;47.900;8.146;2023-02-28T00:23:16;10.30;;;2.93;;
36593;SDS011;22603;47.900;8.146;2023-02-28T00:26:03;6.73;;;2.57;;
36593;SDS011;22603;47.900;8.146;2023-02-28T00:28:52;5.63;;;2.60;;
36593;SDS011;22603;47.900;8.146;2023-02-28T00:31:39;6.80;;;3.10;;
36593;SDS011;22603;47.900;8.146;2023-02-28T00:34:26;7.10;;;2.97;;
36593;SDS011;22603;47.900;8.146;2023-02-28T00:37:13;7.70;;;2.77;;
36593;SDS011;22603;47.900;8.146;2023-02-28T00:40:01;7.43;;;2.13;;
36593;SDS011;22603;47.900;8.146;2023-02-28T00:42:50;11.70;;;2.63;;
36593;SDS011;22603;47.900;8.146;2023-02-28T00:45:38;3.90;;;2.00;;
36593;SDS011;22603;47.900;8.146;2023-02-28T00:48:25;6.37;;;2.77;;
36593;SDS011;22603;47.900;8.146;2023-02-28T00:51:12;4.83;;;1.90;;
36593;SDS011;22603;47.900;8.146;2023-02-28T00:54:00;6.57;;;2.20;;
36593;SDS011;22603;47.900;8.146;2023-02-28T00:56:46;4.63;;;2.33;;
36593;SDS011;22603;47.900;8.146;2023-02-28T00:59:34;9.07;;;3.20;;
36593;SDS011;22603;47.900;8.146;2023-02-28T01:02:22;8.57;;;2.47;;
36593;SDS011;22603;47.900;8.146;2023-02-28T01:05:09;8.33;;;2.83;;
36593;SDS011;22603;47.900;8.146;2023-02-28T01:07:57;5.87;;;2.10;;
36593;SDS011;22603;47.900;8.146;2023-02-28T01:10:43;7.50;;;2.50;;
36593;SDS011;22603;47.900;8.146;2023-02-28T01:13:31;7.53;;;2.63;;
36593;SDS011;22603;47.900;8.146;2023-02-28T01:16:18;11.77;;;2.93;;
36593;SDS011;22603;47.900;8.146;2023-02-28T01:19:06;8.03;;;3.20;;
36593;SDS011;22603;47.900;8.146;2023-02-28T01:21:53;7.50;;;2.97;;
36593;SDS011;22603;47.900;8.146;2023-02-28T01:24:40;6.50;;;2.47;;
36593;SDS011;22603;47.900;8.146;2023-02-28T01:27:27;7.13;;;2.57;;
36593;SDS011;22603;47.900;8.146;2023-02-28T01:30:14;11.00;;;3.43;;
36593;SDS011;22603;47.900;8.146;2023-02-28T01:33:02;6.43;;;2.80;;
36593;SDS011;22603;47.900;8.146;2023-02-28T01:35:56;6.97;;;2.57;;
36593;SDS011;22603;47.900;8.146;2023-02-28T01:38:44;4.90;;;2.17;;
36593;SDS011;22603;47.900;8.146;2023-02-28T01:41:33;7.70;;;3.10;;
36593;SDS011;22603;47.900;8.146;2023-02-28T01:47:44;6.67;;;2.40;;
36593;SDS011;22603;47.900;8.146;2023-02-28T01:50:34;5.40;;;2.30;;
36593;SDS011;22603;47.900;8.146;2023-02-28T01:53:27;4.73;;;1.90;;
36593;SDS011;22603;47.900;8.146;2023-02-28T01:56:19;6.63;;;2.60;;
36593;SDS011;22603;47.900;8.146;2023-02-28T01:59:12;7.07;;;3.40;;
36593;SDS011;22603;47.900;8.146;2023-02-28T02:02:00;7.43;;;3.17;;
36593;SDS011;22603;47.900;8.146;2023-02-28T02:04:50;5.13;;;2.43;;
36593;SDS011;22603;47.900;8.146;2023-02-28T02:07:41;6.60;;;2.30;;
36593;SDS011;22603;47.900;8.146;2023-02-28T02:10:33;7.07;;;2.60;;
36593;SDS011;22603;47.900;8.146;2023-02-28T02:13:25;6.07;;;2.60;;
36593;SDS011;22603;47.900;8.146;2023-02-28T02:16:28;6.93;;;2.57;;
36593;SDS011;22603;47.900;8.146;2023-02-28T02:19:33;5.57;;;2.67;;
36593;SDS011;22603;47.900;8.146;2023-02-28T02:26:22;7.10;;;2.67;;
36593;SDS011;22603;47.900;8.146;2023-02-28T02:29:30;5.83;;;2.63;;
36593;SDS011;22603;47.900;8.146;2023-02-28T02:32:48;6.43;;;2.23;;
36593;SDS011;22603;47.900;8.146;2023-02-28T02:35:54;5.07;;;2.20;;
36593;SDS011;22603;47.900;8.146;2023-02-28T02:38:46;8.20;;;2.90;;
36593;SDS011;22603;47.900;8.146;2023-02-28T02:41:38;5.30;;;2.63;;
36593;SDS011;22603;47.900;8.146;2023-02-28T02:44:32;6.27;;;2.50;;
36593;SDS011;22603;47.900;8.146;2023-02-28T02:47:27;5.90;;;2.33;;
36593;SDS011;22603;47.900;8.146;2023-02-28T02:50:17;7.90;;;2.37;;
36593;SDS011;22603;47.900;8.146;2023-02-28T02:53:12;5.13;;;2.33;;
36593;SDS011;22603;47.900;8.146;2023-02-28T02:56:04;8.33;;;3.00;;
36593;SDS011;22603;47.900;8.146;2023-02-28T02:58:53;7.03;;;3.07;;
36593;SDS011;22603;47.900;8.146;2023-02-28T03:01:43;7.37;;;3.00;;
36593;SDS011;22603;47.900;8.146;2023-02-28T03:04:30;5.70;;;2.77;;
36593;SDS011;22603;47.900;8.146;2023-02-28T03:07:20;6.50;;;2.20;;
36593;SDS011;22603;47.900;8.146;2023-02-28T03:16:48;5.03;;;2.47;;
36593;SDS011;22603;47.900;8.146;2023-02-28T03:19:46;5.60;;;2.53;;
36593;SDS011;22603;47.900;8.146;2023-02-28T03:22:41;4.13;;;1.73;;
36593;SDS011;22603;47.900;8.146;2023-02-28T03:25:50;6.77;;;2.37;;
36593;SDS011;22603;47.900;8.146;2023-02-28T03:28:43;8.40;;;3.27;;
36593;SDS011;22603;47.900;8.146;2023-02-28T03:31:37;6.60;;;2.43;;
36593;SDS011;22603;47.900;8.146;2023-02-28T03:34:28;6.70;;;2.33;;
36593;SDS011;22603;47.900;8.146;2023-02-28T03:37:19;10.33;;;3.33;;
36593;SDS011;22603;47.900;8.146;2023-02-28T03:40:10;4.83;;;1.80;;
36593;SDS011;22603;47.900;8.146;2023-02-28T03:43:02;7.50;;;3.13;;
36593;SDS011;22603;47.900;8.146;2023-02-28T03:45:54;7.57;;;2.93;;
36593;SDS011;22603;47.900;8.146;2023-02-28T03:48:43;8.70;;;2.90;;
36593;SDS011;22603;47.900;8.146;2023-02-28T03:51:34;6.33;;;2.77;;
36593;SDS011;22603;47.900;8.146;2023-02-28T03:54:25;7.20;;;2.37;;
36593;SDS011;22603;47.900;8.146;2023-02-28T03:57:17;7.07;;;2.83;;
36593;SDS011;22603;47.900;8.146;2023-02-28T04:00:14;6.87;;;2.60;;
36593;SDS011;22603;47.900;8.146;2023-02-28T04:03:04;5.37;;;2.47;;
36593;SDS011;22603;47.900;8.146;2023-02-28T04:05:52;7.43;;;2.57;;
36593;SDS011;22603;47.900;8.146;2023-02-28T04:08:40;6.50;;;3.23;;
36593;SDS011;22603;47.900;8.146;2023-02-28T04:11:29;5.93;;;2.93;;
36593;SDS011;22603;47.900;8.146;2023-02-28T04:14:19;5.50;;;2.60;;
36593;SDS011;22603;47.900;8.146;2023-02-28T04:17:11;5.93;;;2.27;;
36593;SDS011;22603;47.900;8.146;2023-02-28T04:19:57;9.43;;;3.33;;
36593;SDS011;22603;47.900;8.146;2023-02-28T04:22:44;4.63;;;2.03;;
36593;SDS011;22603;47.900;8.146;2023-02-28T04:25:31;6.33;;;2.40;;
36593;SDS011;22603;47.900;8.146;2023-02-28T04:28:18;6.93;;;2.67;;
36593;SDS011;22603;47.900;8.146;2023-02-28T04:31:05;7.17;;;2.30;;
36593;SDS011;22603;47.900;8.146;2023-02-28T04:33:53;4.73;;;2.13;;
36593;SDS011;22603;47.900;8.146;2023-02-28T04:36:40;6.87;;;2.33;;
36593;SDS011;22603;47.900;8.146;2023-02-28T04:39:27;6.63;;;2.50;;
36593;SDS011;22603;47.900;8.146;2023-02-28T04:42:14;5.73;;;2.97;;
36593;SDS011;22603;47.900;8.146;2023-02-28T04:45:02;7.87;;;2.63;;
36593;SDS011;22603;47.900;8.146;2023-02-28T04:47:49;5.70;;;2.80;;
36593;SDS011;22603;47.900;8.146;2023-02-28T04:50:37;6.90;;;2.20;;
36593;SDS011;22603;47.900;8.146;2023-02-28T04:53:24;6.87;;;3.00;;
36593;SDS011;22603;47.900;8.146;2023-02-28T04:56:11;9.30;;;3.23;;
36593;SDS011;22603;47.900;8.146;2023-02-28T04:58:59;7.07;;;2.67;;
36593;SDS011;22603;47.900;8.146;2023-02-28T05:01:47;10.70;;;4.10;;
36593;SDS011;22603;47.900;8.146;2023-02-28T05:04:37;8.20;;;3.57;;
36593;SDS011;22603;47.900;8.146;2023-02-28T05:07:26;6.43;;;2.80;;
36593;SDS011;22603;47.900;8.146;2023-02-28T05:10:12;5.10;;;2.30;;
36593;SDS011;22603;47.900;8.146;2023-02-28T05:12:59;9.10;;;3.07;;
36593;SDS011;22603;47.900;8.146;2023-02-28T05:15:47;9.07;;;3.37;;
36593;SDS011;22603;47.900;8.146;2023-02-28T05:18:34;6.80;;;2.67;;
36593;SDS011;22603;47.900;8.146;2023-02-28T05:21:26;6.07;;;2.60;;
36593;SDS011;22603;47.900;8.146;2023-02-28T05:24:17;9.40;;;3.03;;
36593;SDS011;22603;47.900;8.146;2023-02-28T05:27:08;7.63;;;2.27;;
36593;SDS011;22603;47.900;8.146;2023-02-28T05:29:55;9.30;;;3.03;;
36593;SDS011;22603;47.900;8.146;2023-02-28T05:32:43;6.60;;;2.43;;
36593;SDS011;22603;47.900;8.146;2023-02-28T05:35:36;9.30;;;3.50;;
36593;SDS011;22603;47.900;8.146;2023-02-28T05:38:24;9.83;;;3.57;;
36593;SDS011;22603;47.900;8.146;2023-02-28T05:41:13;7.00;;;2.90;;
36593;SDS011;22603;47.900;8.146;2023-02-28T05:44:00;7.37;;;2.27;;
36593;SDS011;22603;47.900;8.146;2023-02-28T05:46:47;7.47;;;2.97;;
36593;SDS011;22603;47.900;8.146;2023-02-28T05:49:33;9.73;;;2.90;;
36593;SDS011;22603;47.900;8.146;2023-02-28T05:52:21;15.20;;;3.13;;
36593;SDS011;22603;47.900;8.146;2023-02-28T05:55:08;8.33;;;3.43;;
36593;SDS011;22603;47.900;8.146;2023-02-28T05:57:57;7.60;;;3.47;;
36593;SDS011;22603;47.900;8.146;2023-02-28T06:00:44;4.80;;;2.17;;
36593;SDS011;22603;47.900;8.146;2023-02-28T06:03:31;10.03;;;3.07;;
36593;SDS011;22603;47.900;8.146;2023-02-28T06:06:18;9.40;;;3.50;;
36593;SDS011;22603;47.900;8.146;2023-02-28T06:09:06;7.27;;;3.13;;
36593;SDS011;22603;47.900;8.146;2023-02-28T06:11:53;9.10;;;2.53;;
36593;SDS011;22603;47.900;8.146;2023-02-28T06:14:42;7.13;;;2.43;;
36593;SDS011;22603;47.900;8.146;2023-02-28T06:17:29;9.77;;;3.33;;
36593;SDS011;22603;47.900;8.146;2023-02-28T06:20:16;9.37;;;3.60;;
36593;SDS011;22603;47.900;8.146;2023-02-28T06:23:03;7.50;;;3.60;;
36593;SDS011;22603;47.900;8.146;2023-02-28T06:25:50;8.13;;;3.50;;
36593;SDS011;22603;47.900;8.146;2023-02-28T06:28:38;7.70;;;3.10;;
36593;SDS011;22603;47.900;8.146;2023-02-28T06:31:26;6.17;;;2.47;;
36593;SDS011;22603;47.900;8.146;2023-02-28T06:34:14;6.63;;;3.00;;
36593;SDS011;22603;47.900;8.146;2023-02-28T06:37:02;10.80;;;4.03;;
36593;SDS011;22603;47.900;8.146;2023-02-28T06:39:51;8.20;;;3.60;;
36593;SDS011;22603;47.900;8.146;2023-02-28T06:42:38;7.83;;;3.87;;
36593;SDS011;22603;47.900;8.146;2023-02-28T06:45:25;6.30;;;2.97;;
36593;SDS011;22603;47.900;8.146;2023-02-28T06:48:13;6.13;;;2.33;;
36593;SDS011;22603;47.900;8.146;2023-02-28T06:51:04;9.27;;;3.00;;
36593;SDS011;22603;47.900;8.146;2023-02-28T06:53:52;9.77;;;4.43;;
36593;SDS011;22603;47.900;8.146;2023-02-28T06:56:39;7.10;;;2.87;;
36593;SDS011;22603;47.900;8.146;2023-02-28T06:59:28;10.93;;;3.47;;
36593;SDS011;22603;47.900;8.146;2023-02-28T07:02:15;8.53;;;3.73;;
36593;SDS011;22603;47.900;8.146;2023-02-28T07:05:04;9.20;;;3.20;;
36593;SDS011;22603;47.900;8.146;2023-02-28T07:07:51;8.97;;;3.43;;
36593;SDS011;22603;47.900;8.146;2023-02-28T07:10:39;10.07;;;4.23;;
36593;SDS011;22603;47.900;8.146;2023-02-28T07:13:27;6.80;;;2.83;;
36593;SDS011;22603;47.900;8.146;2023-02-28T07:16:13;10.37;;;4.30;;
36593;SDS011;22603;47.900;8.146;2023-02-28T07:19:01;11.13;;;3.70;;
36593;SDS011;22603;47.900;8.146;2023-02-28T07:21:49;10.00;;;3.80;;
36593;SDS011;22603;47.900;8.146;2023-02-28T07:24:36;9.60;;;3.63;;
36593;SDS011;22603;47.900;8.146;2023-02-28T07:27:23;7.63;;;3.27;;
36593;SDS011;22603;47.900;8.146;2023-02-28T07:30:11;10.53;;;3.87;;
36593;SDS011;22603;47.900;8.146;2023-02-28T07:32:59;10.23;;;3.93;;
36593;SDS011;22603;47.900;8.146;2023-02-28T07:35:46;8.33;;;3.80;;
36593;SDS011;22603;47.900;8.146;2023-02-28T07:41:22;10.00;;;4.40;;
36593;SDS011;22603;47.900;8.146;2023-02-28T07:44:13;12.83;;;4.67;;
36593;SDS011;22603;47.900;8.146;2023-02-28T07:47:00;8.13;;;3.83;;
36593;SDS011;22603;47.900;8.146;2023-02-28T07:49:47;9.37;;;3.53;;
36593;SDS011;22603;47.900;8.146;2023-02-28T07:52:34;8.53;;;3.27;;
36593;SDS011;22603;47.900;8.146;2023-02-28T07:55:23;10.90;;;3.93;;
36593;SDS011;22603;47.900;8.146;2023-02-28T07:58:10;11.43;;;4.17;;
36593;SDS011;22603;47.900;8.146;2023-02-28T08:00:57;10.77;;;4.47;;
36593;SDS011;22603;47.900;8.146;2023-02-28T08:03:51;12.17;;;3.90;;
36593;SDS011;22603;47.900;8.146;2023-02-28T08:06:39;11.20;;;4.00;;
36593;SDS011;22603;47.900;8.146;2023-02-28T08:09:26;8.67;;;3.57;;
36593;SDS011;22603;47.900;8.146;2023-02-28T08:12:16;10.97;;;4.07;;
36593;SDS011;22603;47.900;8.146;2023-02-28T08:15:03;9.80;;;3.80;;
36593;SDS011;22603;47.900;8.146;2023-02-28T08:17:50;9.17;;;3.40;;
36593;SDS011;22603;47.900;8.146;2023-02-28T08:20:37;7.60;;;3.07;;
36593;SDS011;22603;47.900;8.146;2023-02-28T08:23:24;15.83;;;5.10;;
36593;SDS011;22603;47.900;8.146;2023-02-28T08:26:11;11.83;;;4.40;;
36593;SDS011;22603;47.900;8.146;2023-02-28T08:29:00;9.60;;;3.90;;
36593;SDS011;22603;47.900;8.146;2023-02-28T08:31:48;8.00;;;3.53;;
36593;SDS011;22603;47.900;8.146;2023-02-28T08:34:35;7.50;;;3.13;;
36593;SDS011;22603;47.900;8.146;2023-02-28T08:37:24;10.63;;;4.20;;
36593;SDS011;22603;47.900;8.146;2023-02-28T08:40:11;12.83;;;4.57;;
36593;SDS011;22603;47.900;8.146;2023-02-28T08:43:03;10.80;;;4.27;;
36593;SDS011;22603;47.900;8.146;2023-02-28T08:45:52;10.33;;;3.23;;
36593;SDS011;22603;47.900;8.146;2023-02-28T08:48:39;7.93;;;3.67;;
36593;SDS011;22603;47.900;8.146;2023-02-28T08:51:27;12.03;;;4.17;;
36593;SDS011;22603;47.900;8.146;2023-02-28T08:54:15;8.20;;;4.13;;
36593;SDS011;22603;47.900;8.146;2023-02-28T08:57:04;11.03;;;4.07;;
36593;SDS011;22603;47.900;8.146;2023-02-28T08:59:51;9.87;;;4.30;;
36593;SDS011;22603;47.900;8.146;2023-02-28T09:02:39;9.70;;;4.10;;
36593;SDS011;22603;47.900;8.146;2023-02-28T09:05:29;12.27;;;4.43;;
36593;SDS011;22603;47.900;8.146;2023-02-28T09:08:15;7.87;;;3.87;;
36593;SDS011;22603;47.900;8.146;2023-02-28T09:11:02;9.50;;;3.50;;
36593;SDS011;22603;47.900;8.146;2023-02-28T09:13:50;9.27;;;3.93;;
36593;SDS011;22603;47.900;8.146;2023-02-28T09:16:37;12.53;;;4.30;;
36593;SDS011;22603;47.900;8.146;2023-02-28T09:19:26;9.70;;;3.47;;
36593;SDS011;22603;47.900;8.146;2023-02-28T09:22:13;11.07;;;4.27;;
36593;SDS011;22603;47.900;8.146;2023-02-28T09:25:00;10.30;;;4.53;;
36593;SDS011;22603;47.900;8.146;2023-02-28T09:27:47;10.07;;;3.73;;
36593;SDS011;22603;47.900;8.146;2023-02-28T09:30:34;9.67;;;3.97;;
36593;SDS011;22603;47.900;8.146;2023-02-28T09:33:21;12.20;;;4.17;;
36593;SDS011;22603;47.900;8.146;2023-02-28T09:36:10;7.93;;;3.63;;
36593;SDS011;22603;47.900;8.146;2023-02-28T09:38:57;10.47;;;3.73;;
36593;SDS011;22603;47.900;8.146;2023-02-28T09:41:44;11.23;;;3.73;;
36593;SDS011;22603;47.900;8.146;2023-02-28T09:44:37;8.47;;;3.33;;
36593;SDS011;22603;47.900;8.146;2023-02-28T09:47:30;9.77;;;4.17;;
36593;SDS011;22603;47.900;8.146;2023-02-28T09:50:22;8.03;;;3.23;;
36593;SDS011;22603;47.900;8.146;2023-02-28T09:53:21;13.90;;;4.27;;
36593;SDS011;22603;47.900;8.146;2023-02-28T09:56:14;10.33;;;4.37;;
36593;SDS011;22603;47.900;8.146;2023-02-28T09:59:14;9.67;;;4.17;;
36593;SDS011;22603;47.900;8.146;2023-02-28T10:02:16;12.77;;;4.20;;
36593;SDS011;22603;47.900;8.146;2023-02-28T10:05:11;10.80;;;4.00;;
36593;SDS011;22603;47.900;8.146;2023-02-28T10:08:02;13.77;;;3.67;;
36593;SDS011;22603;47.900;8.146;2023-02-28T10:10:55;12.77;;;5.23;;
36593;SDS011;22603;47.900;8.146;2023-02-28T10:13:47;10.50;;;3.83;;
36593;SDS011;22603;47.900;8.146;2023-02-28T10:16:40;18.73;;;4.73;;
36593;SDS011;22603;47.900;8.146;2023-02-28T10:19:33;10.50;;;4.27;;
36593;SDS011;22603;47.900;8.146;2023-02-28T10:22:31;11.40;;;4.50;;
36593;SDS011;22603;47.900;8.146;2023-02-28T10:25:26;8.80;;;3.93;;
36593;SDS011;22603;47.900;8.146;2023-02-28T10:28:16;13.73;;;4.40;;
36593;SDS011;22603;47.900;8.146;2023-02-28T10:31:04;10.80;;;4.30;;
36593;SDS011;22603;47.900;8.146;2023-02-28T10:33:51;13.10;;;4.30;;
36593;SDS011;22603;47.900;8.146;2023-02-28T10:36:38;11.93;;;3.80;;
36593;SDS011;22603;47.900;8.146;2023-02-28T10:39:35;12.10;;;4.37;;
36593;SDS011;22603;47.900;8.146;2023-02-28T10:42:24;13.47;;;4.57;;
36593;SDS011;22603;47.900;8.146;2023-02-28T10:45:13;14.93;;;5.10;;
36593;SDS011;22603;47.900;8.146;2023-02-28T10:48:02;12.43;;;5.33;;
36593;SDS011;22603;47.900;8.146;2023-02-28T10:50:51;11.30;;;4.00;;
36593;SDS011;22603;47.900;8.146;2023-02-28T10:53:47;11.80;;;4.67;;
36593;SDS011;22603;47.900;8.146;2023-02-28T10:56:46;14.03;;;4.83;;
36593;SDS011;22603;47.900;8.146;2023-02-28T11:00:05;14.63;;;5.40;;
36593;SDS011;22603;47.900;8.146;2023-02-28T11:03:02;10.60;;;4.23;;
36593;SDS011;22603;47.900;8.146;2023-02-28T11:06:17;11.27;;;5.23;;
36593;SDS011;22603;47.900;8.146;2023-02-28T11:09:14;15.47;;;4.57;;
36593;SDS011;22603;47.900;8.146;2023-02-28T11:12:21;11.77;;;4.80;;
36593;SDS011;22603;47.900;8.146;2023-02-28T11:15:19;16.03;;;5.57;;
36593;SDS011;22603;47.900;8.146;2023-02-28T11:18:20;12.17;;;4.23;;
36593;SDS011;22603;47.900;8.146;2023-02-28T11:21:15;6.10;;;2.53;;
36593;SDS011;22603;47.900;8.146;2023-02-28T11:24:14;12.83;;;5.70;;
36593;SDS011;22603;47.900;8.146;2023-02-28T11:27:10;11.73;;;4.40;;
36593;SDS011;22603;47.900;8.146;2023-02-28T11:30:24;10.20;;;4.63;;
36593;SDS011;22603;47.900;8.146;2023-02-28T11:33:26;13.83;;;4.40;;
36593;SDS011;22603;47.900;8.146;2023-02-28T11:36:15;11.40;;;4.93;;
36593;SDS011;22603;47.900;8.146;2023-02-28T11:39:08;11.70;;;3.07;;
36593;SDS011;22603;47.900;8.146;2023-02-28T11:42:02;11.10;;;4.53;;
36593;SDS011;22603;47.900;8.146;2023-02-28T11:45:01;10.07;;;3.97;;
36593;SDS011;22603;47.900;8.146;2023-02-28T11:48:01;14.37;;;5.30;;
36593;SDS011;22603;47.900;8.146;2023-02-28T11:51:03;11.23;;;4.70;;
36593;SDS011;22603;47.900;8.146;2023-02-28T11:54:14;13.40;;;5.43;;
36593;SDS011;22603;47.900;8.146;2023-02-28T11:57:18;12.10;;;4.30;;
36593;SDS011;22603;47.900;8.146;2023-02-28T12:00:25;13.30;;;5.20;;
36593;SDS011;22603;47.900;8.146;2023-02-28T12:03:26;11.00;;;4.30;;
36593;SDS011;22603;47.900;8.146;2023-02-28T12:06:20;12.93;;;4.80;;
36593;SDS011;22603;47.900;8.146;2023-02-28T12:09:24;13.97;;;5.23;;
36593;SDS011;22603;47.900;8.146;2023-02-28T12:12:29;11.47;;;4.50;;
36593;SDS011;22603;47.900;8.146;2023-02-28T12:15:32;11.37;;;4.67;;
36593;SDS011;22603;47.900;8.146;2023-02-28T12:18:49;11.63;;;4.80;;
36593;SDS011;22603;47.900;8.146;2023-02-28T12:21:51;13.10;;;5.10;;
36593;SDS011;22603;47.900;8.146;2023-02-28T12:28:36;11.83;;;4.83;;
36593;SDS011;22603;47.900;8.146;2023-02-28T12:31:28;14.47;;;5.00;;
36593;SDS011;22603;47.900;8.146;2023-02-28T12:34:22;12.13;;;4.63;;
36593;SDS011;22603;47.900;8.146;2023-02-28T12:37:15;11.67;;;4.97;;
36593;SDS011;22603;47.900;8.146;2023-02-28T12:40:11;11.70;;;5.27;;
36593;SDS011;22603;47.900;8.146;2023-02-28T12:43:02;13.57;;;4.70;;
36593;SDS011;22603;47.900;8.146;2023-02-28T12:45:53;14.63;;;5.67;;
36593;SDS011;22603;47.900;8.146;2023-02-28T12:48:44;14.90;;;6.13;;
36593;SDS011;22603;47.900;8.146;2023-02-28T12:51:34;12.00;;;4.90;;
36593;SDS011;22603;47.900;8.146;2023-02-28T12:54:25;9.70;;;5.13;;
36593;SDS011;22603;47.900;8.146;2023-02-28T12:57:18;16.50;;;6.53;;
36593;SDS011;22603;47.900;8.146;2023-02-28T13:00:12;11.77;;;5.40;;
36593;SDS011;22603;47.900;8.146;2023-02-28T13:06:25;14.03;;;5.43;;
36593;SDS011;22603;47.900;8.146;2023-02-28T13:09:21;11.00;;;4.43;;
36593;SDS011;22603;47.900;8.146;2023-02-28T13:12:14;13.47;;;5.83;;
36593;SDS011;22603;47.900;8.146;2023-02-28T13:15:04;11.07;;;5.07;;
36593;SDS011;22603;47.900;8.146;2023-02-28T13:17:58;14.97;;;6.70;;
36593;SDS011;22603;47.900;8.146;2023-02-28T13:20:47;11.77;;;5.47;;
36593;SDS011;22603;47.900;8.146;2023-02-28T13:33:35;11.47;;;4.83;;
36593;SDS011;22603;47.900;8.146;2023-02-28T13:36:25;16.33;;;5.83;;
36593;SDS011;22603;47.900;8.146;2023-02-28T13:42:36;12.67;;;5.43;;
36593;SDS011;22603;47.900;8.146;2023-02-28T13:45:34;15.37;;;5.60;;
36593;SDS011;22603;47.900;8.146;2023-02-28T13:48:23;15.07;;;5.40;;
36593;SDS011;22603;47.900;8.146;2023-02-28T13:54:34;13.63;;;5.60;;
36593;SDS011;22603;47.900;8.146;2023-02-28T13:57:35;14.30;;;5.57;;
36593;SDS011;22603;47.900;8.146;2023-02-28T14:00:37;15.27;;;6.10;;
36593;SDS011;22603;47.900;8.146;2023-02-28T14:07:06;11.77;;;5.07;;
36593;SDS011;22603;47.900;8.146;2023-02-28T14:09:57;18.63;;;6.00;;
36593;SDS011;22603;47.900;8.146;2023-02-28T14:12:59;14.77;;;5.13;;
36593;SDS011;22603;47.900;8.146;2023-02-28T14:15:57;12.60;;;5.10;;
36593;SDS011;22603;47.900;8.146;2023-02-28T14:18:48;18.47;;;5.60;;
36593;SDS011;22603;47.900;8.146;2023-02-28T14:21:38;10.77;;;5.13;;
36593;SDS011;22603;47.900;8.146;2023-02-28T14:27:53;13.60;;;5.23;;
36593;SDS011;22603;47.900;8.146;2023-02-28T14:30:53;14.33;;;5.83;;
36593;SDS011;22603;47.900;8.146;2023-02-28T14:33:48;12.53;;;5.67;;
36593;SDS011;22603;47.900;8.146;2023-02-28T14:36:49;14.70;;;5.97;;
36593;SDS011;22603;47.900;8.146;2023-02-28T14:39:40;14.70;;;6.47;;
36593;SDS011;22603;47.900;8.146;2023-02-28T14:42:30;16.23;;;5.43;;
36593;SDS011;22603;47.900;8.146;2023-02-28T14:45:21;13.50;;;5.77;;
36593;SDS011;22603;47.900;8.146;2023-02-28T14:48:09;16.57;;;7.07;;
36593;SDS011;22603;47.900;8.146;2023-02-28T14:50:57;14.43;;;5.27;;
36593;SDS011;22603;47.900;8.146;2023-02-28T14:53:45;14.73;;;5.80;;
36593;SDS011;22603;47.900;8.146;2023-02-28T14:56:38;17.83;;;6.60;;
36593;SDS011;22603;47.900;8.146;2023-02-28T14:59:27;17.37;;;6.47;;
36593;SDS011;22603;47.900;8.146;2023-02-28T15:02:18;12.73;;;5.40;;
36593;SDS011;22603;47.900;8.146;2023-02-28T15:05:17;14.37;;;5.97;;
36593;SDS011;22603;47.900;8.146;2023-02-28T15:08:14;12.63;;;5.73;;
36593;SDS011;22603;47.900;8.146;2023-02-28T15:11:02;14.00;;;5.93;;
36593;SDS011;22603;47.900;8.146;2023-02-28T15:13:53;14.70;;;5.47;;
36593;SDS011;22603;47.900;8.146;2023-02-28T15:16:41;11.80;;;5.00;;
36593;SDS011;22603;47.900;8.146;2023-02-28T15:19:35;16.10;;;6.37;;
36593;SDS011;22603;47.900;8.146;2023-02-28T15:22:29;12.93;;;5.83;;
36593;SDS011;22603;47.900;8.146;2023-02-28T15:25:21;18.83;;;5.37;;
36593;SDS011;22603;47.900;8.146;2023-02-28T15:28:11;17.42;;;7.95;;
36593;SDS011;22603;47.900;8.146;2023-02-28T15:31:01;15.67;;;6.37;;
36593;SDS011;22603;47.900;8.146;2023-02-28T15:34:04;11.97;;;5.73;;
36593;SDS011;22603;47.900;8.146;2023-02-28T15:36:54;12.53;;;5.73;;
36593;SDS011;22603;47.900;8.146;2023-02-28T15:39:42;16.40;;;5.87;;
36593;SDS011;22603;47.900;8.146;2023-02-28T15:42:30;14.27;;;6.00;;
36593;SDS011;22603;47.900;8.146;2023-02-28T15:45:28;15.03;;;5.63;;
36593;SDS011;22603;47.900;8.146;2023-02-28T15:48:20;16.27;;;6.37;;
36593;SDS011;22603;47.900;8.146;2023-02-28T15:51:14;14.87;;;6.30;;
36593;SDS011;22603;47.900;8.146;2023-02-28T15:54:06;14.00;;;5.70;;
36593;SDS011;22603;47.900;8.146;2023-02-28T15:56:55;15.30;;;6.30;;
36593;SDS011;22603;47.900;8.146;2023-02-28T15:59:45;13.37;;;5.83;;
36593;SDS011;22603;47.900;8.146;2023-02-28T16:02:38;12.43;;;6.20;;
36593;SDS011;22603;47.900;8.146;2023-02-28T16:05:25;14.23;;;6.30;;
36593;SDS011;22603;47.900;8.146;2023-02-28T16:08:17;11.57;;;5.13;;
36593;SDS011;22603;47.900;8.146;2023-02-28T16:11:07;13.57;;;5.90;;
36593;SDS011;22603;47.900;8.146;2023-02-28T16:13:55;14.47;;;5.90;;
36593;SDS011;22603;47.900;8.146;2023-02-28T16:16:43;14.00;;;5.57;;
36593;SDS011;22603;47.900;8.146;2023-02-28T16:19:31;12.83;;;5.23;;
36593;SDS011;22603;47.900;8.146;2023-02-28T16:22:19;13.50;;;5.67;;
36593;SDS011;22603;47.900;8.146;2023-02-28T16:25:06;12.40;;;6.30;;
36593;SDS011;22603;47.900;8.146;2023-02-28T16:27:55;12.37;;;5.60;;
36593;SDS011;22603;47.900;8.146;2023-02-28T16:30:45;19.67;;;6.30;;
36593;SDS011;22603;47.900;8.146;2023-02-28T16:33:33;13.90;;;6.37;;
36593;SDS011;22603;47.900;8.146;2023-02-28T16:36:21;12.80;;;5.17;;
36593;SDS011;22603;47.900;8.146;2023-02-28T16:39:10;13.70;;;6.33;;
36593;SDS011;22603;47.900;8.146;2023-02-28T16:41:57;15.97;;;6.10;;
36593;SDS011;22603;47.900;8.146;2023-02-28T16:44:45;17.97;;;5.43;;
36593;SDS011;22603;47.900;8.146;2023-02-28T16:47:32;14.33;;;5.90;;
36593;SDS011;22603;47.900;8.146;2023-02-28T16:50:20;13.10;;;6.03;;
36593;SDS011;22603;47.900;8.146;2023-02-28T16:53:09;11.30;;;5.13;;
36593;SDS011;22603;47.900;8.146;2023-02-28T16:55:56;13.27;;;5.33;;
36593;SDS011;22603;47.900;8.146;2023-02-28T16:58:44;13.63;;;5.97;;
36593;SDS011;22603;47.900;8.146;2023-02-28T17:01:32;13.57;;;6.43;;
36593;SDS011;22603;47.900;8.146;2023-02-28T17:04:22;27.00;;;9.10;;
36593;SDS011;22603;47.900;8.146;2023-02-28T17:07:10;16.30;;;7.20;;
36593;SDS011;22603;47.900;8.146;2023-02-28T17:09:59;17.90;;;6.97;;
36593;SDS011;22603;47.900;8.146;2023-02-28T17:12:54;15.93;;;6.07;;
36593;SDS011;22603;47.900;8.146;2023-02-28T17:15:56;19.83;;;6.97;;
36593;SDS011;22603;47.900;8.146;2023-02-28T17:18:47;14.37;;;6.97;;
36593;SDS011;22603;47.900;8.146;2023-02-28T17:21:34;15.80;;;5.67;;
36593;SDS011;22603;47.900;8.146;2023-02-28T17:24:21;19.33;;;5.40;;
36593;SDS011;22603;47.900;8.146;2023-02-28T17:27:15;16.83;;;5.70;;
36593;SDS011;22603;47.900;8.146;2023-02-28T17:30:02;14.20;;;5.63;;
36593;SDS011;22603;47.900;8.146;2023-02-28T17:32:50;14.67;;;6.77;;
36593;SDS011;22603;47.900;8.146;2023-02-28T17:35:39;17.00;;;7.13;;
36593;SDS011;22603;47.900;8.146;2023-02-28T17:38:27;15.63;;;5.47;;
36593;SDS011;22603;47.900;8.146;2023-02-28T17:41:14;16.40;;;6.57;;
36593;SDS011;22603;47.900;8.146;2023-02-28T17:44:02;15.07;;;5.60;;
36593;SDS011;22603;47.900;8.146;2023-02-28T17:46:49;16.70;;;6.03;;
36593;SDS011;22603;47.900;8.146;2023-02-28T17:49:37;16.37;;;6.87;;